Aeroporto :
LOGIN :

Iscrizione | Disclaimer

   EN    FR    IT 

 










Sommario :    VFR   VFR Marginale   IFR   IFR Intensivo   IFR Molto Intensivo
Visibilità : 
Base nubi : 
>= 8 km
>= 3000ft
5 / 8 km
1000 / 3000 ft
1500m / 5 km
500 / 1000 ft
800 / 1500m
200 / 500 ft
< 800m
< 200 ft
Simboli :   Temporali  Nebbia  Neve Forte  Precipitazioni Forti  Vento > 20 kt
SIGMETs :   Varie  Temporali  Ghiacco  Turbolenza  Onda orograficha  Ceneri Vulcaniche






- Altitudine del aeroporto : 464 ft
- Codice IATA : EVX


LFOE - Evreux

ULTIMO METAR :
  • 160700Z AUTO /////KT 9999 -RA SCT034/// OVC041/// ///TCU 07/07 Q1004

METARs OBSOLETI :
  • 160630Z AUTO 17006KT 9999 -RA BKN033/// OVC048/// ///TCU 07/07 Q1004 TEMPO 3000 RA BKN004 OVC010
  • 160600Z AUTO /////KT 9999 -RADZ BKN035 BKN056 BKN074 07/07 Q1004
  • 160530Z AUTO 18005KT 9999 -RA FEW036/// SCT042/// BKN058/// ///TCU 07/07 Q1004 TEMPO 3000 RA BKN004 OVC010
  • 160500Z AUTO 18007KT 9999 -RA FEW034/// OVC046/// ///TCU 07/07 Q1004
  • 160430Z AUTO 18006KT 9999 FEW047 BKN054 OVC100 07/07 Q1004

TAF AMD TAF LFOE
Valido dal 16 a 05 ore il 17 a 03 ore UTC


160500Z 1605/1703 18006KT 9999 SCT030 BKN045
TEMPO 1606/1618 3000 RA BKN004 OVC010



MetMap, La meteo Aeronautica in un colpo d'occhio ! - Copyright ORBIFLY Dicembre 2007 - Disclaimer

ORBIFLY MET'MAP TEAM :

Programmazione e sviluppo : Alexandra Zaïnal
Concezione : Baudouin d'Aumeries
Aiuto per la programmazione : Marc-Olivier Méhu
Supporto tecnico e logistico : Manuel Goepfert
Aiuto per la traduzione : Arnaldo La Scala

Contatto : metmap@orbifly.com




FONTI E CREDITI :

   NOAA